createdAt,value
2023-03-26T00:00:41.782Z,2.5
2023-03-26T00:01:45.070Z,1.8
2023-03-26T00:02:48.369Z,1.8
2023-03-26T00:03:51.671Z,1.2
2023-03-26T00:04:54.945Z,2.3
2023-03-26T00:05:58.245Z,2.8
2023-03-26T00:07:01.551Z,1.7
2023-03-26T00:08:03.849Z,1.9
2023-03-26T00:09:07.109Z,2.2
2023-03-26T00:10:10.405Z,2.09
2023-03-26T00:11:13.715Z,2.6
2023-03-26T00:12:16.990Z,1.5
2023-03-26T00:13:20.308Z,1.9
2023-03-26T00:14:23.587Z,1.3
2023-03-26T00:15:25.895Z,1.1
2023-03-26T00:16:28.212Z,1.2
2023-03-26T00:17:30.525Z,2.9
2023-03-26T00:18:32.817Z,1.4
2023-03-26T00:19:36.137Z,1.1
2023-03-26T00:20:38.446Z,1
2023-03-26T00:21:40.751Z,1.2
2023-03-26T00:22:44.033Z,2
2023-03-26T00:23:47.351Z,1
2023-03-26T00:24:50.603Z,1.5
2023-03-26T00:25:53.920Z,1.5
2023-03-26T00:26:57.254Z,0.8
2023-03-26T00:28:00.492Z,1.3
2023-03-26T00:29:03.850Z,1.3
2023-03-26T00:30:07.098Z,1.1
2023-03-26T00:31:10.371Z,1.3
2023-03-26T00:32:13.686Z,0.8
2023-03-26T00:33:16.950Z,2.4
2023-03-26T00:34:20.247Z,1.1
2023-03-26T00:35:22.569Z,1
2023-03-26T00:36:25.846Z,1.4
2023-03-26T00:37:29.309Z,2
2023-03-26T00:38:32.586Z,1.5
2023-03-26T00:39:35.716Z,2.2
2023-03-26T00:40:39.006Z,1.3
2023-03-26T00:41:42.298Z,1.3
2023-03-26T00:42:44.627Z,1.6
2023-03-26T00:43:46.920Z,1.5
2023-03-26T00:44:50.217Z,0.8
2023-03-26T00:45:52.519Z,1.6
2023-03-26T00:46:54.926Z,1.3
2023-03-26T00:47:58.132Z,1.4
2023-03-26T00:49:01.427Z,5.7
2023-03-26T00:50:04.706Z,1
2023-03-26T00:51:08.025Z,1.4
2023-03-26T00:52:11.331Z,1.5
2023-03-26T00:53:14.599Z,1.9
2023-03-26T00:54:17.881Z,1.2
2023-03-26T00:55:21.166Z,2.5
2023-03-26T00:56:24.474Z,1.6
2023-03-26T00:57:27.758Z,1.9
2023-03-26T00:58:31.130Z,1
2023-03-26T00:59:34.475Z,2
2023-03-26T01:00:36.667Z,1.1
2023-03-26T01:01:40.017Z,1.2
2023-03-26T01:02:43.238Z,1.2
2023-03-26T01:03:46.535Z,1
2023-03-26T01:04:49.804Z,1.1
2023-03-26T01:05:53.137Z,1.1
2023-03-26T01:06:56.547Z,1.3
2023-03-26T01:07:58.749Z,1.1
2023-03-26T01:09:01.059Z,1
2023-03-26T01:10:03.465Z,2
2023-03-26T01:11:05.718Z,1.1
2023-03-26T01:12:08.932Z,1.1
2023-03-26T01:13:12.224Z,1.2
2023-03-26T01:14:15.521Z,0.8
2023-03-26T01:15:18.827Z,1.8
2023-03-26T01:16:22.167Z,2.09
2023-03-26T01:17:25.469Z,0.9
2023-03-26T01:18:28.732Z,0.8
2023-03-26T01:19:31.954Z,1.1
2023-03-26T01:20:35.699Z,1.5
2023-03-26T01:21:39.031Z,1.1
2023-03-26T01:22:42.289Z,1.3
2023-03-26T01:23:45.586Z,1.2
2023-03-26T01:24:47.941Z,1.8
2023-03-26T01:25:51.177Z,1.2
2023-03-26T01:26:54.481Z,1.2
2023-03-26T01:27:57.780Z,1.1
2023-03-26T01:29:01.101Z,1.8
2023-03-26T01:30:04.417Z,1.8
2023-03-26T01:31:07.641Z,0.9
2023-03-26T01:32:10.013Z,1
2023-03-26T01:33:12.320Z,2.7
2023-03-26T01:34:14.582Z,1.5
2023-03-26T01:35:16.943Z,1.1
2023-03-26T01:36:20.184Z,1.3
2023-03-26T01:37:23.486Z,1.1
2023-03-26T01:38:26.833Z,2.2
2023-03-26T01:39:30.113Z,1.3
2023-03-26T01:40:33.440Z,1.7
2023-03-26T01:41:36.630Z,2.9
2023-03-26T01:42:39.936Z,3.8
2023-03-26T01:43:43.230Z,1.8
2023-03-26T01:44:46.538Z,1.5
2023-03-26T01:45:49.870Z,1.8
2023-03-26T01:46:53.158Z,2.2
2023-03-26T01:47:56.416Z,1.3
2023-03-26T01:48:58.786Z,1.2
2023-03-26T01:50:02.025Z,1
2023-03-26T01:51:05.402Z,1.3
2023-03-26T01:52:08.580Z,1.3
2023-03-26T01:53:11.965Z,1.7
2023-03-26T01:54:15.153Z,1.3
2023-03-26T01:55:18.455Z,1.4
2023-03-26T01:56:20.755Z,1
2023-03-26T01:57:23.078Z,1.4
2023-03-26T01:58:26.364Z,1.3
2023-03-26T01:59:28.729Z,1.6
2023-03-26T02:00:30.994Z,1.1
2023-03-26T02:01:34.270Z,1
2023-03-26T02:02:37.555Z,1.1
2023-03-26T02:03:40.860Z,1.6
2023-03-26T02:04:44.155Z,1.1
2023-03-26T02:05:47.459Z,1.1
2023-03-26T02:06:50.743Z,1.8
2023-03-26T02:07:54.031Z,1.3
2023-03-26T02:08:57.321Z,2.09
2023-03-26T02:10:00.610Z,1.3
2023-03-26T02:11:03.931Z,1.5
2023-03-26T02:12:07.252Z,1.3
2023-03-26T02:13:10.495Z,2.3
2023-03-26T02:14:12.834Z,1.2
2023-03-26T02:15:16.135Z,1.2
2023-03-26T02:16:19.380Z,1.6
2023-03-26T02:17:22.692Z,1.2
2023-03-26T02:18:25.975Z,1.2
2023-03-26T02:19:29.282Z,1.3
2023-03-26T02:20:32.658Z,1.1
2023-03-26T02:22:38.145Z,1.3
2023-03-26T02:23:42.114Z,1.2
2023-03-26T02:24:44.437Z,1.1
2023-03-26T02:25:46.738Z,1.4
2023-03-26T02:26:49.028Z,1.7
2023-03-26T02:27:52.452Z,2.09
2023-03-26T02:28:55.754Z,1.4
2023-03-26T02:29:59.037Z,1.3
2023-03-26T02:31:02.330Z,1.2
2023-03-26T02:32:05.627Z,1.1
2023-03-26T02:33:08.915Z,1.2
2023-03-26T02:34:12.226Z,1.7
2023-03-26T02:35:15.539Z,1.3
2023-03-26T02:36:18.822Z,1.4
2023-03-26T02:37:22.080Z,0.8
2023-03-26T02:38:25.388Z,1
2023-03-26T02:39:28.651Z,1.1
2023-03-26T02:40:31.950Z,1
2023-03-26T02:41:34.271Z,1.2
2023-03-26T02:42:37.556Z,2.2
2023-03-26T02:43:40.848Z,1.2
2023-03-26T02:44:44.136Z,1.1
2023-03-26T02:45:47.428Z,1.1
2023-03-26T02:46:50.716Z,1.2
2023-03-26T02:47:54.028Z,1.1
2023-03-26T02:48:56.321Z,1.1
2023-03-26T02:49:58.635Z,1.2
2023-03-26T02:51:00.988Z,1.1
2023-03-26T02:52:03.239Z,1.3
2023-03-26T02:53:06.561Z,1.2
2023-03-26T02:54:09.850Z,1
2023-03-26T02:55:13.132Z,1.1
2023-03-26T02:56:16.479Z,1.2
2023-03-26T02:57:19.702Z,1.8
2023-03-26T02:58:23.013Z,1.2
2023-03-26T02:59:26.333Z,1.5
2023-03-26T03:00:29.599Z,1.1
2023-03-26T03:01:32.880Z,1.1
2023-03-26T03:02:36.345Z,1.5
2023-03-26T03:03:39.630Z,1.1
2023-03-26T03:04:42.925Z,2
2023-03-26T03:05:45.256Z,1.1
2023-03-26T03:06:48.528Z,1.3
2023-03-26T03:07:51.821Z,1.4
2023-03-26T03:08:55.121Z,1.9
2023-03-26T03:09:58.460Z,1.1
2023-03-26T03:11:01.712Z,1.2
2023-03-26T03:12:04.995Z,1.2
2023-03-26T03:13:07.295Z,1
2023-03-26T03:14:09.612Z,1.2
2023-03-26T03:15:11.931Z,1
2023-03-26T03:16:14.274Z,1
2023-03-26T03:17:17.514Z,1.1
2023-03-26T03:18:20.807Z,1.1
2023-03-26T03:19:24.169Z,0.9
2023-03-26T03:20:27.395Z,1.2
2023-03-26T03:21:30.681Z,0.9
2023-03-26T03:22:33.994Z,2.09
2023-03-26T03:23:37.273Z,1.5
2023-03-26T03:24:40.575Z,1.3
2023-03-26T03:25:43.859Z,1.1
2023-03-26T03:26:47.157Z,1
2023-03-26T03:27:50.442Z,1.1
2023-03-26T03:28:53.725Z,1.1
2023-03-26T03:29:56.050Z,1.2
2023-03-26T03:30:59.326Z,0.8
2023-03-26T03:32:02.635Z,0.9
2023-03-26T03:33:05.918Z,1
2023-03-26T03:34:09.211Z,1.3
2023-03-26T03:36:15.794Z,1.1
2023-03-26T03:37:19.097Z,0.9
2023-03-26T03:38:21.403Z,1.3
2023-03-26T03:39:23.710Z,1
2023-03-26T03:40:27.006Z,1.1
2023-03-26T03:41:29.306Z,1.1
2023-03-26T03:42:31.634Z,0.9
2023-03-26T03:43:34.907Z,0.9
2023-03-26T03:44:38.261Z,1.1
2023-03-26T03:45:41.488Z,1.5
2023-03-26T03:46:44.778Z,0.9
2023-03-26T03:47:48.070Z,1.2
2023-03-26T03:48:51.360Z,1
2023-03-26T03:49:54.658Z,1
2023-03-26T03:50:57.970Z,1.7
2023-03-26T03:52:01.232Z,1.3
2023-03-26T03:53:04.546Z,0.9
2023-03-26T03:54:07.829Z,1.1
2023-03-26T03:55:11.116Z,1.2
2023-03-26T03:56:13.428Z,1.2
2023-03-26T03:57:16.721Z,0.9
2023-03-26T03:58:19.993Z,3.4
2023-03-26T03:59:23.323Z,5.9
2023-03-26T04:00:26.609Z,2.2
2023-03-26T04:01:29.897Z,3.5
2023-03-26T04:02:33.184Z,1.6
2023-03-26T04:03:35.490Z,1.8
2023-03-26T04:04:37.794Z,1.2
2023-03-26T04:05:40.119Z,2.4
2023-03-26T04:06:42.410Z,1.7
2023-03-26T04:07:45.719Z,2.3
2023-03-26T04:08:49.020Z,3
2023-03-26T04:09:52.313Z,3.1
2023-03-26T04:10:55.596Z,1.3
2023-03-26T04:11:58.872Z,3.2
2023-03-26T04:13:02.161Z,4.8
2023-03-26T04:14:05.474Z,1.3
2023-03-26T04:15:08.764Z,1.7
2023-03-26T04:16:12.050Z,1.7
2023-03-26T04:17:15.334Z,3.4
2023-03-26T04:18:18.638Z,2
2023-03-26T04:19:21.930Z,2.7
2023-03-26T04:20:24.238Z,1.4
2023-03-26T04:21:27.533Z,1.5
2023-03-26T04:22:30.808Z,1.6
2023-03-26T04:23:34.123Z,1.1
2023-03-26T04:24:37.390Z,1.3
2023-03-26T04:25:40.696Z,2.3
2023-03-26T04:26:43.991Z,1.7
2023-03-26T04:27:46.309Z,2.09
2023-03-26T04:28:48.602Z,1
2023-03-26T04:29:50.923Z,1.5
2023-03-26T04:30:53.250Z,1
2023-03-26T04:32:59.841Z,1.6
2023-03-26T04:34:03.090Z,1.5
2023-03-26T04:35:06.389Z,0.8
2023-03-26T04:36:09.741Z,0.9
2023-03-26T04:37:12.975Z,1
2023-03-26T04:38:16.262Z,1.2
2023-03-26T04:39:19.553Z,1.2
2023-03-26T04:40:22.852Z,0.8
2023-03-26T04:41:26.160Z,0.9
2023-03-26T04:42:29.439Z,0.7
2023-03-26T04:43:32.731Z,0.9
2023-03-26T04:44:35.038Z,1.1
2023-03-26T04:45:38.317Z,1.5
2023-03-26T04:46:41.607Z,1.1
2023-03-26T04:47:44.916Z,1
2023-03-26T04:48:48.215Z,0.8
2023-03-26T04:49:51.499Z,1
2023-03-26T04:50:54.781Z,0.9
2023-03-26T04:51:58.131Z,2.09
2023-03-26T04:53:00.400Z,1.2
2023-03-26T04:54:02.712Z,1
2023-03-26T04:55:05.020Z,0.9
2023-03-26T04:56:07.315Z,1
2023-03-26T04:57:10.599Z,1.1
2023-03-26T04:58:13.913Z,0.5
2023-03-26T04:59:17.198Z,0.6
2023-03-26T05:00:20.490Z,0.6
2023-03-26T05:01:23.775Z,1.6
2023-03-26T05:02:27.089Z,0.5
2023-03-26T05:03:30.366Z,0.9
2023-03-26T05:04:33.651Z,0.8
2023-03-26T05:05:37.128Z,0.8
2023-03-26T05:06:40.484Z,1.1
2023-03-26T05:07:43.779Z,1
2023-03-26T05:08:46.995Z,0.9
2023-03-26T05:09:49.384Z,0.6
2023-03-26T05:10:52.587Z,0.5
2023-03-26T05:11:55.875Z,1
2023-03-26T05:12:59.188Z,0.5
2023-03-26T05:14:02.464Z,0.6
2023-03-26T05:15:05.791Z,0.5
2023-03-26T05:16:09.061Z,0.8
2023-03-26T05:17:11.368Z,1.1
2023-03-26T05:18:13.663Z,0.6
2023-03-26T05:19:17.065Z,0.8
2023-03-26T05:20:19.283Z,1
2023-03-26T05:21:21.573Z,1
2023-03-26T05:22:24.884Z,0.5
2023-03-26T05:23:28.183Z,0.9
2023-03-26T05:24:31.473Z,0.7
2023-03-26T05:25:34.751Z,1
2023-03-26T05:26:38.054Z,0.6
2023-03-26T05:27:41.328Z,0.6
2023-03-26T05:28:43.657Z,0.7
2023-03-26T05:29:46.947Z,0.6
2023-03-26T05:30:50.223Z,0.5
2023-03-26T05:31:53.556Z,0.9
2023-03-26T05:32:56.810Z,0.5
2023-03-26T05:34:00.131Z,0.7
2023-03-26T05:35:03.402Z,0.5
2023-03-26T05:36:06.695Z,0.7
2023-03-26T05:37:09.982Z,0.5
2023-03-26T05:38:13.267Z,0.5
2023-03-26T05:39:16.630Z,1.2
2023-03-26T05:40:19.854Z,0.9
2023-03-26T05:41:23.149Z,0.5
2023-03-26T05:42:25.470Z,0.8
2023-03-26T05:43:27.779Z,0.5
2023-03-26T05:44:30.090Z,0.5
2023-03-26T05:45:32.390Z,0.7
2023-03-26T05:46:35.753Z,0.8
2023-03-26T05:47:38.984Z,0.6
2023-03-26T05:48:42.284Z,0.5
2023-03-26T05:49:45.564Z,0.8
2023-03-26T05:50:48.848Z,0.5
2023-03-26T05:51:52.158Z,0.8
2023-03-26T05:52:55.501Z,1
2023-03-26T05:53:58.739Z,0.4
2023-03-26T05:55:02.024Z,0.8
2023-03-26T05:56:05.311Z,0.5
2023-03-26T05:57:08.591Z,0.5
2023-03-26T05:58:11.894Z,0.6
2023-03-26T05:59:14.211Z,0.9
2023-03-26T06:00:17.512Z,0.8
2023-03-26T06:01:20.798Z,0.4
2023-03-26T06:02:24.096Z,0.7
2023-03-26T06:03:27.363Z,0.6
2023-03-26T06:04:30.671Z,0.4
2023-03-26T06:05:33.952Z,0.9
2023-03-26T06:06:36.257Z,0.8
2023-03-26T06:07:38.583Z,1.2
2023-03-26T06:08:40.889Z,0.4
2023-03-26T06:09:43.188Z,0.6
2023-03-26T06:10:46.475Z,0.4
2023-03-26T06:11:49.785Z,0.5
2023-03-26T06:12:53.061Z,0.9
2023-03-26T06:13:56.402Z,1.5
2023-03-26T06:14:59.750Z,1.2
2023-03-26T06:16:02.948Z,0.3
2023-03-26T06:17:06.237Z,0.5
2023-03-26T06:18:09.567Z,1.3
2023-03-26T06:19:12.822Z,0.7
2023-03-26T06:20:16.110Z,0.5
2023-03-26T06:21:19.400Z,0.5
2023-03-26T06:22:22.694Z,0.6
2023-03-26T06:23:25.027Z,0.5
2023-03-26T06:24:28.285Z,0.7
2023-03-26T06:25:31.613Z,0.5
2023-03-26T06:26:34.874Z,0.4
2023-03-26T06:27:38.177Z,0.5
2023-03-26T06:28:41.468Z,0.5
2023-03-26T06:29:44.759Z,0.4
2023-03-26T06:30:47.063Z,0.6
2023-03-26T06:31:49.369Z,0.5
2023-03-26T06:32:51.690Z,0.8
2023-03-26T06:33:54.049Z,0.5
2023-03-26T06:34:57.301Z,1
2023-03-26T06:36:00.624Z,0.5
2023-03-26T06:37:03.882Z,0.6
2023-03-26T06:38:07.186Z,0.5
2023-03-26T06:39:10.492Z,1.1
2023-03-26T06:40:13.758Z,0.6
2023-03-26T06:41:17.076Z,0.6
2023-03-26T06:42:20.351Z,0.5
2023-03-26T06:43:23.618Z,0.8
2023-03-26T06:44:26.919Z,0.4
2023-03-26T06:45:30.216Z,0.6
2023-03-26T06:46:33.502Z,0.6
2023-03-26T06:47:35.814Z,1.1
2023-03-26T06:48:39.130Z,0.6
2023-03-26T06:49:42.386Z,0.4
2023-03-26T06:50:45.673Z,0.6
2023-03-26T06:51:48.981Z,0.7
2023-03-26T06:52:52.274Z,0.5
2023-03-26T06:53:55.556Z,0.5
2023-03-26T06:54:57.887Z,0.9
2023-03-26T06:56:00.196Z,0.6
2023-03-26T06:57:02.563Z,0.4
2023-03-26T06:59:08.089Z,0.5
2023-03-26T07:00:11.385Z,0.8
2023-03-26T07:01:14.764Z,0.5
2023-03-26T07:02:17.981Z,0.8
2023-03-26T07:03:21.338Z,0.6
2023-03-26T07:04:24.570Z,0.6
2023-03-26T07:05:27.837Z,0.8
2023-03-26T07:06:31.237Z,0.8
2023-03-26T07:07:34.418Z,0.6
2023-03-26T07:08:37.960Z,0.6
2023-03-26T07:09:41.190Z,0.5
2023-03-26T07:10:44.517Z,0.6
2023-03-26T07:11:46.803Z,0.5
2023-03-26T07:12:50.103Z,0.8
2023-03-26T07:13:53.371Z,0.6
2023-03-26T07:14:56.725Z,0.9
2023-03-26T07:15:59.950Z,1.3
2023-03-26T07:17:03.276Z,0.6
2023-03-26T07:18:06.550Z,0.5
2023-03-26T07:19:09.832Z,0.7
2023-03-26T07:20:12.138Z,0.4
2023-03-26T07:21:14.505Z,0.9
2023-03-26T07:22:17.753Z,0.6
2023-03-26T07:23:20.077Z,0.8
2023-03-26T07:24:22.369Z,0.6
2023-03-26T07:25:25.645Z,0.5
2023-03-26T07:26:28.937Z,0.6
2023-03-26T07:27:32.221Z,0.5
2023-03-26T07:28:35.652Z,0.5
2023-03-26T07:29:38.824Z,0.6
2023-03-26T07:30:42.154Z,1
2023-03-26T07:31:45.401Z,0.6
2023-03-26T07:32:48.696Z,0.4
2023-03-26T07:33:52.004Z,0.6
2023-03-26T07:34:55.285Z,0.6
2023-03-26T07:35:58.585Z,0.7
2023-03-26T07:37:01.873Z,0.8
2023-03-26T07:38:04.181Z,0.5
2023-03-26T07:39:07.464Z,0.8
2023-03-26T07:40:10.803Z,0.4
2023-03-26T07:41:14.045Z,0.4
2023-03-26T07:42:17.343Z,0.4
2023-03-26T07:43:20.631Z,0.8
2023-03-26T07:44:23.919Z,0.4
2023-03-26T07:45:26.239Z,0.6
2023-03-26T07:46:29.736Z,0.4
2023-03-26T07:47:32.052Z,0.5
2023-03-26T07:48:34.270Z,1
2023-03-26T07:49:38.255Z,0.6
2023-03-26T07:50:41.552Z,0.4
2023-03-26T07:51:44.841Z,0.4
2023-03-26T07:52:48.141Z,0.7
2023-03-26T07:53:51.416Z,0.4
2023-03-26T07:54:54.721Z,0.8
2023-03-26T07:55:58.190Z,0.4
2023-03-26T07:57:01.297Z,0.4
2023-03-26T07:58:04.591Z,0.5
2023-03-26T07:59:07.994Z,0.6
2023-03-26T08:00:11.157Z,0.4
2023-03-26T08:01:14.464Z,0.6
2023-03-26T08:02:16.761Z,0.4
2023-03-26T08:03:20.166Z,0.5
2023-03-26T08:04:23.348Z,0.4
2023-03-26T08:05:26.651Z,0.5
2023-03-26T08:06:29.940Z,0.3
2023-03-26T08:07:33.246Z,0.3
2023-03-26T08:08:36.521Z,0.3
2023-03-26T08:09:38.839Z,0.4
2023-03-26T08:10:41.251Z,0.3
2023-03-26T08:11:44.563Z,0.3
2023-03-26T08:12:47.834Z,0.5
2023-03-26T08:13:51.155Z,0.5
2023-03-26T08:14:54.454Z,0.7
2023-03-26T08:15:57.856Z,0.3
2023-03-26T08:17:01.020Z,0.3
2023-03-26T08:18:04.342Z,0.6
2023-03-26T08:19:07.674Z,0.4
2023-03-26T08:20:10.893Z,0.5
2023-03-26T08:21:14.184Z,0.3
2023-03-26T08:22:17.476Z,0.6
2023-03-26T08:23:20.809Z,0.6
2023-03-26T08:24:23.078Z,0.9
2023-03-26T08:25:26.368Z,0.3
2023-03-26T08:26:29.659Z,0.4
2023-03-26T08:27:32.958Z,0.4
2023-03-26T08:28:36.240Z,0.4
2023-03-26T08:29:39.580Z,0.3
2023-03-26T08:30:42.814Z,0.2
2023-03-26T08:31:45.131Z,0.4
2023-03-26T08:32:47.462Z,0.4
2023-03-26T08:33:49.753Z,0.4
2023-03-26T08:34:52.109Z,0.6
2023-03-26T08:35:55.437Z,0.5
2023-03-26T08:36:58.679Z,0.4
2023-03-26T08:38:02.053Z,0.3
2023-03-26T08:39:05.280Z,0.3
2023-03-26T08:40:08.528Z,0.4
2023-03-26T08:41:11.845Z,0.3
2023-03-26T08:42:15.160Z,0.4
2023-03-26T08:43:18.422Z,0.3
2023-03-26T08:44:21.679Z,0.4
2023-03-26T08:45:24.976Z,1
2023-03-26T08:46:28.267Z,0.3
2023-03-26T08:47:31.574Z,0.7
2023-03-26T08:48:33.886Z,0.6
2023-03-26T08:49:37.163Z,0.5
2023-03-26T08:50:40.473Z,1.5
2023-03-26T08:51:43.779Z,0.6
2023-03-26T08:52:47.090Z,0.7
2023-03-26T08:53:50.412Z,0.3
2023-03-26T08:54:53.625Z,0.3
2023-03-26T08:55:55.944Z,0.3
2023-03-26T08:56:58.291Z,0.3
2023-03-26T08:58:00.624Z,0.4
2023-03-26T08:59:02.892Z,0.6
2023-03-26T09:00:05.183Z,0.3
2023-03-26T09:01:08.558Z,0.7
2023-03-26T09:02:11.750Z,0.4
2023-03-26T09:03:15.164Z,0.3
2023-03-26T09:04:18.368Z,0.6
2023-03-26T09:05:21.754Z,0.4
2023-03-26T09:06:24.925Z,0.4
2023-03-26T09:07:28.306Z,0.4
2023-03-26T09:08:31.553Z,0.3
2023-03-26T09:09:34.908Z,1
2023-03-26T09:10:38.733Z,0.3
2023-03-26T09:11:42.019Z,0.5
2023-03-26T09:12:45.305Z,0.7
2023-03-26T09:13:47.569Z,0.7
2023-03-26T09:14:50.840Z,0.5
2023-03-26T09:15:54.269Z,0.5
2023-03-26T09:16:57.489Z,0.3
2023-03-26T09:18:00.799Z,0.4
2023-03-26T09:19:04.019Z,0.3
2023-03-26T09:20:06.343Z,0.4
2023-03-26T09:21:08.651Z,0.4
2023-03-26T09:22:11.035Z,0.5
2023-03-26T09:23:13.239Z,0.3
2023-03-26T09:24:16.549Z,0.4
2023-03-26T09:25:19.879Z,0.8
2023-03-26T09:26:23.116Z,0.4
2023-03-26T09:27:26.407Z,0.3
2023-03-26T09:28:29.751Z,0.4
2023-03-26T09:29:32.989Z,0.9
2023-03-26T09:30:36.285Z,0.5
2023-03-26T09:32:42.885Z,0.6
2023-03-26T09:33:46.282Z,0.3
2023-03-26T09:34:49.462Z,0.3
2023-03-26T09:35:52.772Z,0.4
2023-03-26T09:36:55.072Z,0.4
2023-03-26T09:37:58.338Z,0.2
2023-03-26T09:39:01.654Z,0.4
2023-03-26T09:40:04.951Z,0.2
2023-03-26T09:41:08.230Z,0.5
2023-03-26T09:42:11.513Z,1
2023-03-26T09:43:14.857Z,0.4
2023-03-26T09:44:18.102Z,0.3
2023-03-26T09:45:20.464Z,0.3
2023-03-26T09:46:22.723Z,0.3
2023-03-26T09:47:25.060Z,0.5
2023-03-26T09:48:27.366Z,0.6
2023-03-26T09:49:30.700Z,0.8
2023-03-26T09:50:33.927Z,0.8
2023-03-26T09:51:37.214Z,0.5
2023-03-26T09:52:40.510Z,0.3
2023-03-26T09:53:43.810Z,0.6
2023-03-26T09:54:47.109Z,1.1
2023-03-26T09:55:50.389Z,0.7
2023-03-26T09:56:53.677Z,0.4
2023-03-26T09:57:56.993Z,0.7
2023-03-26T09:59:00.284Z,0.3
2023-03-26T10:00:03.592Z,0.6
2023-03-26T10:01:06.832Z,0.6
2023-03-26T10:02:09.144Z,0.7
2023-03-26T10:03:12.502Z,0.5
2023-03-26T10:04:15.824Z,0.8
2023-03-26T10:05:19.027Z,1
2023-03-26T10:06:22.339Z,1
2023-03-26T10:07:25.628Z,0.4
2023-03-26T10:08:28.967Z,1.1
2023-03-26T10:09:31.300Z,0.3
2023-03-26T10:10:33.529Z,0.5
2023-03-26T10:11:35.833Z,0.5
2023-03-26T10:12:38.184Z,0.9
2023-03-26T10:13:42.021Z,0.9
2023-03-26T10:14:45.329Z,1.3
2023-03-26T10:15:48.628Z,0.5
2023-03-26T10:16:51.917Z,0.4
2023-03-26T10:17:55.214Z,0.4
2023-03-26T10:18:58.501Z,0.6
2023-03-26T10:20:01.797Z,0.3
2023-03-26T10:21:05.116Z,0.7
2023-03-26T10:22:08.380Z,0.9
2023-03-26T10:23:11.666Z,0.8
2023-03-26T10:24:14.955Z,0.6
2023-03-26T10:25:18.255Z,0.6
2023-03-26T10:26:20.614Z,0.8
2023-03-26T10:27:23.840Z,0.4
2023-03-26T10:28:27.138Z,0.5
2023-03-26T10:29:30.427Z,0.9
2023-03-26T10:30:33.732Z,0.3
2023-03-26T10:31:37.009Z,0.6
2023-03-26T10:32:40.302Z,0.6
2023-03-26T10:33:42.629Z,0.5
2023-03-26T10:34:44.913Z,0.7
2023-03-26T10:35:47.237Z,0.6
2023-03-26T10:36:49.543Z,0.7
2023-03-26T10:37:52.849Z,0.2
2023-03-26T10:38:56.133Z,0.6
2023-03-26T10:39:59.411Z,0.6
2023-03-26T10:41:02.705Z,0.7
2023-03-26T10:42:06.008Z,0.8
2023-03-26T10:43:09.289Z,0.6
2023-03-26T10:44:12.580Z,0.7
2023-03-26T10:45:15.878Z,0.4
2023-03-26T10:46:19.196Z,0.4
2023-03-26T10:47:22.464Z,0.8
2023-03-26T10:48:25.749Z,0.5
2023-03-26T10:49:29.061Z,0.5
2023-03-26T10:50:31.362Z,0.5
2023-03-26T10:51:34.663Z,0.4
2023-03-26T10:52:37.939Z,0.5
2023-03-26T10:53:41.233Z,1
2023-03-26T10:54:44.538Z,0.7
2023-03-26T10:55:47.800Z,0.9
2023-03-26T10:56:51.097Z,0.8
2023-03-26T10:57:53.437Z,1
2023-03-26T10:58:55.724Z,0.8
2023-03-26T10:59:59.007Z,0.6
2023-03-26T11:01:01.342Z,0.6
2023-03-26T11:02:03.675Z,1.1
2023-03-26T11:03:06.930Z,0.7
2023-03-26T11:04:10.225Z,1
2023-03-26T11:05:13.507Z,0.7
2023-03-26T11:06:16.814Z,1.1
2023-03-26T11:07:20.098Z,0.9
2023-03-26T11:08:23.396Z,1.1
2023-03-26T11:09:26.692Z,0.8
2023-03-26T11:10:29.977Z,1
2023-03-26T11:11:33.269Z,1.1
2023-03-26T11:12:36.554Z,1
2023-03-26T11:13:39.845Z,1
2023-03-26T11:14:43.180Z,1.2
2023-03-26T11:15:45.461Z,1
2023-03-26T11:16:48.757Z,1.2
2023-03-26T11:17:52.053Z,1.2
2023-03-26T11:18:55.336Z,1.1
2023-03-26T11:19:58.740Z,1.3
2023-03-26T11:21:02.006Z,4.19
2023-03-26T11:22:05.225Z,2.9
2023-03-26T11:23:07.553Z,5.5
2023-03-26T11:24:09.926Z,2.6
2023-03-26T11:25:13.103Z,3.5
2023-03-26T11:26:16.425Z,1.4
2023-03-26T11:27:19.834Z,2.9
2023-03-26T11:28:23.190Z,10.7
2023-03-26T11:29:26.348Z,16.5
2023-03-26T11:31:33.067Z,4.4
2023-03-26T11:32:36.346Z,7.1
2023-03-26T11:33:39.684Z,8.1
2023-03-26T11:34:42.862Z,6
2023-03-26T11:35:46.319Z,4.19
2023-03-26T11:36:49.448Z,5.6
2023-03-26T11:37:51.744Z,3.2
2023-03-26T11:38:55.057Z,3.8
2023-03-26T11:39:58.318Z,4.1
2023-03-26T11:41:01.745Z,10.9
2023-03-26T11:42:04.956Z,31.2
2023-03-26T11:43:08.277Z,22.2
2023-03-26T11:44:11.488Z,24.4
2023-03-26T11:45:14.845Z,12.9
2023-03-26T11:46:17.098Z,7.1
2023-03-26T11:47:19.427Z,8.3
2023-03-26T11:48:21.724Z,6.6
2023-03-26T11:49:24.014Z,6.2
2023-03-26T11:50:26.367Z,7.4
2023-03-26T11:51:28.641Z,4.6
2023-03-26T11:52:31.924Z,9.6
2023-03-26T11:53:35.238Z,10.7
2023-03-26T11:54:38.515Z,6.4
2023-03-26T11:55:41.841Z,7.2
2023-03-26T11:56:45.728Z,9
2023-03-26T11:58:52.310Z,7.7
2023-03-26T11:59:55.618Z,6.9
2023-03-26T12:00:58.899Z,4.5
2023-03-26T12:02:02.179Z,6
2023-03-26T12:03:05.475Z,4.9
2023-03-26T12:04:08.761Z,5
2023-03-26T12:05:11.082Z,4
2023-03-26T12:06:14.380Z,3.6
2023-03-26T12:07:17.669Z,4.9
2023-03-26T12:08:20.959Z,4.19
2023-03-26T12:09:24.228Z,5.3
2023-03-26T12:10:27.536Z,3.5
2023-03-26T12:11:30.815Z,6.3
2023-03-26T12:12:34.123Z,3.5
2023-03-26T12:13:36.431Z,4.1
2023-03-26T12:14:38.737Z,2.6
2023-03-26T12:15:42.037Z,2.7
2023-03-26T12:16:45.954Z,2.4
2023-03-26T12:17:48.256Z,3
2023-03-26T12:18:50.556Z,3.2
2023-03-26T12:19:53.863Z,5.5
2023-03-26T12:20:57.155Z,2
2023-03-26T12:22:00.566Z,2.4
2023-03-26T12:23:03.757Z,2.2
2023-03-26T12:24:07.025Z,3.7
2023-03-26T12:25:10.306Z,2.5
2023-03-26T12:26:13.613Z,2.9
2023-03-26T12:27:16.900Z,2.3
2023-03-26T12:28:20.195Z,2.6
2023-03-26T12:29:23.474Z,3.4
2023-03-26T12:30:26.780Z,3.4
2023-03-26T12:31:29.091Z,4
2023-03-26T12:32:32.383Z,2.3
2023-03-26T12:33:35.679Z,3.2
2023-03-26T12:34:38.986Z,2.8
2023-03-26T12:35:43.037Z,2.7
2023-03-26T12:36:46.288Z,2.4
2023-03-26T12:37:49.563Z,1.8
2023-03-26T12:38:52.849Z,2.3
2023-03-26T12:39:55.152Z,5
2023-03-26T12:40:57.587Z,4.8
2023-03-26T12:41:59.776Z,3.4
2023-03-26T12:43:51.461Z,4.8
2023-03-26T12:44:42.379Z,4.6
2023-03-26T12:45:08.665Z,4.1
2023-03-26T12:46:11.955Z,3.3
2023-03-26T12:47:15.247Z,2.7
2023-03-26T12:48:18.572Z,2.6
2023-03-26T12:49:21.846Z,2.8
2023-03-26T12:50:25.124Z,4.8
2023-03-26T12:51:28.475Z,2.09
2023-03-26T12:52:31.718Z,4
2023-03-26T12:53:34.997Z,2.8
2023-03-26T12:54:38.331Z,2.7
2023-03-26T12:55:41.583Z,1.4
2023-03-26T12:56:43.951Z,2.7
2023-03-26T12:57:47.292Z,2
2023-03-26T12:58:50.625Z,1.5
2023-03-26T12:59:53.759Z,2.09
2023-03-26T13:00:57.289Z,1.6
2023-03-26T13:02:00.434Z,2.9
2023-03-26T13:03:03.641Z,3
2023-03-26T13:04:05.947Z,3.4
2023-03-26T13:05:08.274Z,4.1
2023-03-26T13:06:10.585Z,1.5
2023-03-26T13:07:12.892Z,2.7
2023-03-26T13:08:16.196Z,4.19
2023-03-26T13:09:19.539Z,3
2023-03-26T13:10:22.771Z,2.3
2023-03-26T13:11:26.073Z,4.3
2023-03-26T13:12:29.393Z,3.8
2023-03-26T13:13:32.623Z,6.7
2023-03-26T13:14:35.932Z,2.7
2023-03-26T13:15:39.237Z,4.4
2023-03-26T13:16:43.173Z,2.09
2023-03-26T13:17:46.479Z,2.6
2023-03-26T13:18:49.835Z,2.7
2023-03-26T13:19:53.091Z,4
2023-03-26T13:20:55.370Z,2.5
2023-03-26T13:21:58.669Z,1.6
2023-03-26T13:23:01.938Z,2.2
2023-03-26T13:24:05.237Z,2.8
2023-03-26T13:25:08.528Z,2.3
2023-03-26T13:26:11.818Z,1.8
2023-03-26T13:27:15.113Z,1.8
2023-03-26T13:28:17.436Z,2.09
2023-03-26T13:29:19.739Z,1.4
2023-03-26T13:30:22.077Z,1.8
2023-03-26T13:31:24.360Z,2.3
2023-03-26T13:32:27.649Z,1.4
2023-03-26T13:33:30.962Z,1.7
2023-03-26T13:34:34.218Z,1.5
2023-03-26T13:35:37.557Z,3.5
2023-03-26T13:36:40.821Z,8.1
2023-03-26T13:37:44.116Z,1
2023-03-26T13:38:47.385Z,1.5
2023-03-26T13:39:50.688Z,6.1
2023-03-26T13:40:54.005Z,3.7
2023-03-26T13:41:57.291Z,3.7
2023-03-26T13:43:00.585Z,1.4
2023-03-26T13:44:03.895Z,2.2
2023-03-26T13:45:06.237Z,1.6
2023-03-26T13:46:09.477Z,2.4
2023-03-26T13:47:12.774Z,1.6
2023-03-26T13:48:16.056Z,1.3
2023-03-26T13:49:19.346Z,1.6
2023-03-26T13:50:22.654Z,1.1
2023-03-26T13:51:25.920Z,1.1
2023-03-26T13:52:28.271Z,2
2023-03-26T13:53:30.552Z,2.2
2023-03-26T13:54:32.894Z,1.3
2023-03-26T13:55:35.174Z,1.6
2023-03-26T13:56:38.465Z,2
2023-03-26T13:57:41.752Z,2.3
2023-03-26T13:58:45.071Z,1.7
2023-03-26T13:59:48.338Z,3.1
2023-03-26T14:00:51.630Z,1.2
2023-03-26T14:01:54.929Z,1.2
2023-03-26T14:02:58.227Z,0.9
2023-03-26T14:04:01.513Z,1.1
2023-03-26T14:05:04.773Z,1
2023-03-26T14:06:08.089Z,1.1
2023-03-26T14:07:11.373Z,2.2
2023-03-26T14:08:14.672Z,2
2023-03-26T14:09:16.973Z,1
2023-03-26T14:10:20.277Z,0.7
2023-03-26T14:11:23.560Z,1.1
2023-03-26T14:12:26.839Z,1
2023-03-26T14:13:30.155Z,1.1
2023-03-26T14:14:33.417Z,1.4
2023-03-26T14:15:36.771Z,1.2
2023-03-26T14:16:39.056Z,2
2023-03-26T14:17:41.346Z,1.2
2023-03-26T14:18:43.680Z,1.1
2023-03-26T14:20:49.261Z,0.9
2023-03-26T14:21:52.536Z,1
2023-03-26T14:22:55.828Z,1
2023-03-26T14:23:59.115Z,1.1
2023-03-26T14:25:02.439Z,0.9
2023-03-26T14:26:05.726Z,1
2023-03-26T14:27:09.014Z,0.9
2023-03-26T14:28:12.307Z,1
2023-03-26T14:29:15.621Z,0.9
2023-03-26T14:30:18.922Z,0.9
2023-03-26T14:31:22.192Z,1
2023-03-26T14:32:25.459Z,1.9
2023-03-26T14:33:27.791Z,4.3
2023-03-26T14:34:31.078Z,2.4
2023-03-26T14:35:34.369Z,1.6
2023-03-26T14:36:37.662Z,0.9
2023-03-26T14:37:41.119Z,0.9
2023-03-26T14:38:44.233Z,1
2023-03-26T14:39:47.538Z,2.9
2023-03-26T14:40:50.859Z,1
2023-03-26T14:41:53.138Z,0.9
2023-03-26T14:42:55.448Z,1.3